Terminal Aerodrome Forecast
Issued by NWS

Home | Current Version | Previous Version | Text Only | Print | Product List | Glossary On
Versions: 1 2 3 4 5 6 7 8 9 10 11 12 13 14
046
FTUS43 KMQT 212333
TAFSAW
TAF
KSAW 212333Z 2200/2224 18014KT P6SM FEW200 WS010/19045KT
     FM220900 19011KT P6SM BKN035
     FM221000 19011KT P6SM BKN030
     FM221200 18012G18KT P6SM VCSH BKN015
     FM221600 25007KT 3SM -SHRA OVC008
     FM222000 25006KT P6SM OVC012
     FM222200 24005KT P6SM BKN050
     FM222300 23005KT P6SM SCT080=

USA.gov is the U.S. government's official web portal to all federal, state and local government web resources and services.